createdAt,value
2023-03-11T00:02:15.355Z,100.00
2023-03-11T00:04:41.872Z,100.00
2023-03-11T00:07:09.367Z,100.00
2023-03-11T00:09:35.839Z,100.00
2023-03-11T00:12:02.795Z,100.00
2023-03-11T00:14:29.527Z,100.00
2023-03-11T00:16:56.135Z,100.00
2023-03-11T00:19:22.756Z,100.00
2023-03-11T00:21:49.485Z,100.00
2023-03-11T00:24:16.031Z,100.00
2023-03-11T00:26:42.554Z,100.00
2023-03-11T00:29:09.032Z,100.00
2023-03-11T00:31:35.494Z,100.00
2023-03-11T00:34:02.060Z,100.00
2023-03-11T00:36:33.855Z,100.00
2023-03-11T00:39:04.404Z,100.00
2023-03-11T00:41:30.862Z,100.00
2023-03-11T00:43:57.363Z,100.00
2023-03-11T00:46:23.930Z,100.00
2023-03-11T00:48:51.414Z,100.00
2023-03-11T00:51:18.216Z,100.00
2023-03-11T00:53:45.946Z,100.00
2023-03-11T00:56:14.243Z,100.00
2023-03-11T00:58:41.244Z,100.00
2023-03-11T01:01:18.507Z,100.00
2023-03-11T01:03:45.130Z,100.00
2023-03-11T01:06:13.537Z,100.00
2023-03-11T01:08:40.427Z,100.00
2023-03-11T01:11:07.756Z,100.00
2023-03-11T01:13:35.070Z,100.00
2023-03-11T01:16:02.225Z,100.00
2023-03-11T01:18:29.021Z,100.00
2023-03-11T01:20:55.480Z,100.00
2023-03-11T01:23:22.306Z,100.00
2023-03-11T01:25:48.991Z,100.00
2023-03-11T01:28:15.451Z,100.00
2023-03-11T01:30:42.670Z,100.00
2023-03-11T01:33:15.171Z,100.00
2023-03-11T01:35:42.299Z,100.00
2023-03-11T01:38:09.161Z,100.00
2023-03-11T01:40:39.686Z,100.00
2023-03-11T01:43:28.060Z,100.00
2023-03-11T01:45:54.426Z,100.00
2023-03-11T01:48:20.875Z,100.00
2023-03-11T01:50:49.904Z,100.00
2023-03-11T01:53:17.619Z,100.00
2023-03-11T01:55:45.009Z,100.00
2023-03-11T01:58:15.773Z,100.00
2023-03-11T02:00:42.969Z,100.00
2023-03-11T02:03:16.083Z,100.00
2023-03-11T02:05:42.687Z,100.00
2023-03-11T02:08:09.187Z,100.00
2023-03-11T02:10:38.186Z,100.00
2023-03-11T02:13:04.818Z,100.00
2023-03-11T02:15:31.331Z,100.00
2023-03-11T02:17:58.424Z,100.00
2023-03-11T02:20:54.308Z,100.00
2023-03-11T02:23:25.193Z,100.00
2023-03-11T02:26:07.697Z,100.00
2023-03-11T02:28:35.308Z,100.00
2023-03-11T02:31:01.806Z,100.00
2023-03-11T02:33:31.570Z,100.00
2023-03-11T02:35:58.330Z,100.00
2023-03-11T02:38:25.068Z,100.00
2023-03-11T02:41:02.538Z,100.00
2023-03-11T02:43:37.482Z,100.00
2023-03-11T02:46:04.895Z,100.00
2023-03-11T02:48:31.568Z,100.00
2023-03-11T02:50:58.415Z,100.00
2023-03-11T02:53:26.800Z,100.00
2023-03-11T02:55:53.234Z,100.00
2023-03-11T02:58:19.700Z,100.00
2023-03-11T03:00:46.464Z,100.00
2023-03-11T03:03:13.016Z,100.00
2023-03-11T03:05:39.501Z,100.00
2023-03-11T03:08:06.051Z,100.00
2023-03-11T03:10:32.512Z,100.00
2023-03-11T03:12:58.985Z,100.00
2023-03-11T03:15:25.811Z,100.00
2023-03-11T03:17:52.391Z,100.00
2023-03-11T03:20:19.476Z,100.00
2023-03-11T03:22:45.971Z,100.00
2023-03-11T03:25:12.592Z,100.00
2023-03-11T03:27:39.357Z,100.00
2023-03-11T03:30:07.161Z,100.00
2023-03-11T03:32:33.840Z,100.00
2023-03-11T03:35:01.190Z,100.00
2023-03-11T03:37:28.617Z,100.00
2023-03-11T03:39:55.256Z,100.00
2023-03-11T03:42:21.825Z,100.00
2023-03-11T03:44:48.309Z,100.00
2023-03-11T03:47:14.873Z,100.00
2023-03-11T03:49:41.484Z,100.00
2023-03-11T03:52:08.710Z,100.00
2023-03-11T03:54:35.188Z,100.00
2023-03-11T03:57:02.141Z,100.00
2023-03-11T03:59:28.856Z,100.00
2023-03-11T04:01:55.430Z,100.00
2023-03-11T04:04:22.534Z,100.00
2023-03-11T04:06:51.741Z,100.00
2023-03-11T04:09:18.685Z,100.00
2023-03-11T04:11:45.154Z,100.00
2023-03-11T04:14:11.705Z,100.00
2023-03-11T04:16:38.195Z,100.00
2023-03-11T04:19:05.782Z,100.00
2023-03-11T04:21:32.961Z,100.00
2023-03-11T04:23:59.505Z,100.00
2023-03-11T04:26:26.125Z,100.00
2023-03-11T04:28:52.841Z,100.00
2023-03-11T04:31:19.493Z,100.00
2023-03-11T04:33:45.996Z,100.00
2023-03-11T04:36:13.166Z,100.00
2023-03-11T04:38:39.671Z,100.00
2023-03-11T04:41:06.858Z,100.00
2023-03-11T04:43:33.993Z,100.00
2023-03-11T04:46:00.521Z,100.00
2023-03-11T04:48:53.532Z,100.00
2023-03-11T04:51:21.249Z,100.00
2023-03-11T04:53:47.785Z,100.00
2023-03-11T04:56:14.218Z,100.00
2023-03-11T04:58:40.725Z,100.00
2023-03-11T05:01:07.263Z,100.00
2023-03-11T05:03:33.818Z,100.00
2023-03-11T05:06:01.672Z,100.00
2023-03-11T05:08:28.652Z,100.00
2023-03-11T05:10:55.148Z,100.00
2023-03-11T05:13:21.912Z,100.00
2023-03-11T05:15:48.555Z,100.00
2023-03-11T05:18:15.412Z,100.00
2023-03-11T05:20:41.866Z,100.00
2023-03-11T05:23:13.302Z,100.00
2023-03-11T05:25:40.746Z,100.00
2023-03-11T05:28:07.365Z,100.00
2023-03-11T05:30:33.976Z,100.00
2023-03-11T05:33:00.516Z,100.00
2023-03-11T05:35:27.379Z,100.00
2023-03-11T05:37:54.914Z,100.00
2023-03-11T05:40:21.761Z,100.00
2023-03-11T05:42:48.304Z,100.00
2023-03-11T05:45:16.117Z,100.00
2023-03-11T05:47:42.694Z,100.00
2023-03-11T05:50:11.496Z,100.00
2023-03-11T05:52:38.153Z,100.00
2023-03-11T05:55:05.072Z,100.00
2023-03-11T05:57:51.537Z,100.00
2023-03-11T06:00:24.023Z,100.00
2023-03-11T06:02:54.200Z,100.00
2023-03-11T06:05:21.388Z,100.00
2023-03-11T06:07:48.322Z,100.00
2023-03-11T06:10:14.899Z,100.00
2023-03-11T06:12:41.417Z,100.00
2023-03-11T06:15:08.250Z,100.00
2023-03-11T06:17:35.418Z,100.00
2023-03-11T06:20:02.000Z,100.00
2023-03-11T06:22:28.506Z,100.00
2023-03-11T06:24:55.024Z,100.00
2023-03-11T06:27:21.474Z,100.00
2023-03-11T06:29:54.217Z,100.00
2023-03-11T06:32:23.939Z,100.00
2023-03-11T06:34:52.017Z,100.00
2023-03-11T06:37:18.960Z,100.00
2023-03-11T06:39:46.043Z,100.00
2023-03-11T06:42:15.492Z,100.00
2023-03-11T06:44:42.732Z,100.00
2023-03-11T06:47:09.309Z,100.00
2023-03-11T06:49:37.072Z,100.00
2023-03-11T06:52:03.755Z,100.00
2023-03-11T06:54:30.252Z,100.00
2023-03-11T06:56:57.102Z,100.00
2023-03-11T06:59:24.201Z,100.00
2023-03-11T07:01:55.822Z,100.00
2023-03-11T07:04:23.011Z,100.00
2023-03-11T07:06:49.526Z,100.00
2023-03-11T07:09:16.085Z,100.00
2023-03-11T07:11:42.903Z,100.00
2023-03-11T07:14:09.701Z,100.00
2023-03-11T07:16:38.930Z,100.00
2023-03-11T07:19:05.585Z,100.00
2023-03-11T07:21:32.480Z,100.00
2023-03-11T07:24:00.895Z,100.00
2023-03-11T07:26:29.979Z,100.00
2023-03-11T07:28:56.913Z,100.00
2023-03-11T07:31:25.959Z,100.00
2023-03-11T07:33:53.031Z,100.00
2023-03-11T07:36:23.549Z,100.00
2023-03-11T07:38:55.460Z,100.00
2023-03-11T07:41:21.959Z,100.00
2023-03-11T07:43:48.437Z,100.00
2023-03-11T07:46:18.681Z,100.00
2023-03-11T07:48:45.904Z,100.00
2023-03-11T07:51:21.016Z,100.00
2023-03-11T07:53:48.225Z,100.00
2023-03-11T07:56:16.588Z,100.00
2023-03-11T07:58:45.711Z,100.00
2023-03-11T08:01:19.608Z,100.00
2023-03-11T08:03:48.133Z,99.97
2023-03-11T08:06:18.421Z,99.43
2023-03-11T08:08:45.268Z,99.32
2023-03-11T08:11:13.311Z,100.00
2023-03-11T08:13:41.179Z,99.58
2023-03-11T08:16:09.712Z,99.87
2023-03-11T08:18:36.595Z,98.47
2023-03-11T08:21:12.547Z,98.68
2023-03-11T08:23:39.407Z,98.91
2023-03-11T08:26:07.286Z,99.04
2023-03-11T08:28:33.995Z,98.17
2023-03-11T08:31:00.738Z,98.81
2023-03-11T08:33:27.855Z,98.43
2023-03-11T08:35:54.831Z,98.79
2023-03-11T08:38:22.923Z,98.10
2023-03-11T08:40:49.398Z,97.50
2023-03-11T08:43:16.137Z,97.50
2023-03-11T08:45:42.897Z,97.70
2023-03-11T08:48:10.746Z,97.18
2023-03-11T08:50:52.948Z,96.88
2023-03-11T08:53:20.253Z,97.21
2023-03-11T08:55:46.743Z,97.10
2023-03-11T08:58:13.221Z,96.94
2023-03-11T09:00:39.766Z,96.23
2023-03-11T09:03:06.311Z,95.80
2023-03-11T09:05:32.950Z,95.99
2023-03-11T09:08:00.574Z,95.86
2023-03-11T09:10:27.044Z,96.11
2023-03-11T09:12:53.486Z,95.93
2023-03-11T09:15:19.990Z,95.50
2023-03-11T09:17:46.552Z,94.84
2023-03-11T09:20:14.028Z,94.15
2023-03-11T09:22:40.656Z,94.47
2023-03-11T09:25:07.860Z,94.16
2023-03-11T09:27:34.397Z,93.40
2023-03-11T09:30:01.065Z,93.46
2023-03-11T09:32:27.683Z,93.11
2023-03-11T09:34:54.173Z,92.46
2023-03-11T09:37:20.667Z,93.45
2023-03-11T09:39:47.277Z,92.39
2023-03-11T09:42:44.308Z,92.99
2023-03-11T09:45:17.659Z,91.98
2023-03-11T09:48:02.466Z,91.66
2023-03-11T09:50:34.296Z,91.72
2023-03-11T09:53:14.257Z,90.86
2023-03-11T09:55:40.713Z,90.36
2023-03-11T09:58:13.395Z,89.36
2023-03-11T10:00:40.814Z,89.31
2023-03-11T10:03:27.420Z,89.09
2023-03-11T10:05:58.874Z,88.65
2023-03-11T10:08:33.360Z,88.74
2023-03-11T10:11:20.340Z,89.64
2023-03-11T10:13:57.828Z,88.95
2023-03-11T10:16:51.275Z,88.72
2023-03-11T10:19:23.909Z,89.67
2023-03-11T10:22:08.227Z,90.40
2023-03-11T10:24:34.631Z,89.79
2023-03-11T10:27:09.891Z,89.51
2023-03-11T10:29:49.952Z,89.70
2023-03-11T10:32:20.877Z,88.30
2023-03-11T10:34:53.627Z,88.13
2023-03-11T10:37:23.653Z,87.93
2023-03-11T10:39:50.286Z,87.84
2023-03-11T10:42:20.464Z,87.92
2023-03-11T10:44:46.970Z,86.77
2023-03-11T10:47:25.340Z,85.67
2023-03-11T10:49:55.163Z,84.02
2023-03-11T10:52:21.730Z,84.20
2023-03-11T10:54:58.753Z,85.16
2023-03-11T10:57:26.777Z,82.74
2023-03-11T10:59:55.325Z,82.77
2023-03-11T11:02:28.805Z,82.62
2023-03-11T11:05:23.039Z,83.45
2023-03-11T11:08:02.740Z,84.23
2023-03-11T11:10:29.771Z,84.88
2023-03-11T11:13:00.760Z,83.94
2023-03-11T11:15:32.888Z,84.32
2023-03-11T11:18:02.122Z,83.79
2023-03-11T11:20:30.835Z,84.03
2023-03-11T11:23:03.745Z,84.72
2023-03-11T11:25:38.424Z,84.59
2023-03-11T11:28:19.618Z,83.83
2023-03-11T11:31:07.077Z,85.10
2023-03-11T11:33:40.653Z,83.68
2023-03-11T11:36:14.392Z,84.31
2023-03-11T11:38:41.416Z,83.98
2023-03-11T11:41:14.953Z,83.66
2023-03-11T11:44:11.271Z,83.70
2023-03-11T11:47:01.301Z,83.38
2023-03-11T11:49:29.830Z,82.27
2023-03-11T11:52:05.870Z,83.29
2023-03-11T11:54:53.825Z,81.80
2023-03-11T11:57:22.278Z,80.12
2023-03-11T11:59:49.223Z,79.14
2023-03-11T12:02:50.628Z,78.27
2023-03-11T12:05:34.663Z,77.90
2023-03-11T12:08:26.186Z,75.97
2023-03-11T12:10:56.582Z,76.26
2023-03-11T12:14:00.366Z,75.01
2023-03-11T12:16:51.122Z,75.34
2023-03-11T12:19:30.614Z,75.29
2023-03-11T12:22:32.266Z,76.29
2023-03-11T12:25:05.046Z,76.74
2023-03-11T12:27:41.639Z,81.26
2023-03-11T12:30:17.772Z,77.21
2023-03-11T12:32:48.290Z,79.16
2023-03-11T12:35:24.340Z,77.79
2023-03-11T12:38:29.727Z,77.39
2023-03-11T12:40:59.481Z,77.93
2023-03-11T12:43:52.220Z,78.99
2023-03-11T12:46:19.657Z,80.17
2023-03-11T12:48:51.004Z,79.69
2023-03-11T12:51:26.918Z,80.52
2023-03-11T12:53:54.637Z,80.89
2023-03-11T12:56:31.882Z,81.86
2023-03-11T12:59:13.738Z,81.77
2023-03-11T13:02:22.335Z,81.03
2023-03-11T13:05:14.612Z,81.73
2023-03-11T13:07:59.793Z,82.27
2023-03-11T13:10:46.554Z,81.61
2023-03-11T13:13:35.280Z,81.68
2023-03-11T13:16:13.941Z,81.90
2023-03-11T13:18:48.084Z,81.58
2023-03-11T13:21:32.476Z,80.57
2023-03-11T13:24:27.137Z,80.71
2023-03-11T13:26:59.567Z,79.61
2023-03-11T13:29:35.849Z,79.02
2023-03-11T13:32:20.753Z,77.95
2023-03-11T13:34:54.444Z,78.27
2023-03-11T13:37:38.740Z,78.97
2023-03-11T13:40:30.027Z,77.18
2023-03-11T13:43:03.864Z,77.68
2023-03-11T13:45:34.375Z,78.13
2023-03-11T13:48:04.880Z,79.78
2023-03-11T13:50:36.296Z,79.50
2023-03-11T13:53:08.423Z,78.35
2023-03-11T13:55:40.322Z,77.84
2023-03-11T13:58:23.510Z,77.37
2023-03-11T14:00:53.189Z,77.19
2023-03-11T14:03:22.308Z,76.53
2023-03-11T14:05:56.130Z,76.81
2023-03-11T14:08:23.417Z,76.70
2023-03-11T14:11:12.219Z,75.45
2023-03-11T14:13:50.161Z,75.61
2023-03-11T14:16:30.490Z,74.48
2023-03-11T14:19:12.301Z,72.74
2023-03-11T14:21:43.003Z,73.40
2023-03-11T14:24:17.634Z,72.55
2023-03-11T14:26:47.917Z,69.97
2023-03-11T14:29:19.261Z,69.13
2023-03-11T14:31:47.203Z,68.38
2023-03-11T14:34:15.593Z,66.27
2023-03-11T14:36:45.029Z,66.95
2023-03-11T14:39:33.832Z,64.96
2023-03-11T14:42:27.218Z,64.98
2023-03-11T14:45:14.153Z,65.27
2023-03-11T14:47:44.684Z,62.84
2023-03-11T14:50:17.958Z,63.74
2023-03-11T14:52:48.845Z,63.33
2023-03-11T14:55:18.997Z,65.23
2023-03-11T14:57:49.745Z,62.98
2023-03-11T15:00:24.740Z,63.82
2023-03-11T15:03:03.406Z,63.99
2023-03-11T15:05:50.924Z,63.16
2023-03-11T15:08:20.027Z,63.84
2023-03-11T15:11:07.055Z,63.74
2023-03-11T15:13:34.692Z,64.02
2023-03-11T15:16:03.815Z,63.99
2023-03-11T15:18:33.785Z,65.29
2023-03-11T15:21:05.379Z,65.13
2023-03-11T15:23:34.034Z,66.30
2023-03-11T15:26:00.673Z,66.04
2023-03-11T15:28:32.124Z,66.90
2023-03-11T15:31:20.291Z,67.01
2023-03-11T15:33:47.158Z,67.86
2023-03-11T15:37:06.728Z,68.51
2023-03-11T15:39:33.568Z,69.54
2023-03-11T15:42:03.883Z,68.12
2023-03-11T15:44:48.790Z,68.29
2023-03-11T15:47:20.771Z,69.24
2023-03-11T15:49:47.735Z,69.50
2023-03-11T15:52:14.394Z,69.01
2023-03-11T15:54:41.297Z,69.13
2023-03-11T15:57:22.990Z,68.84
2023-03-11T15:59:50.788Z,69.50
2023-03-11T16:02:28.939Z,69.51
2023-03-11T16:04:56.639Z,69.61
2023-03-11T16:07:38.094Z,69.88
2023-03-11T16:10:06.966Z,70.34
2023-03-11T16:12:33.418Z,70.67
2023-03-11T16:14:59.936Z,70.84
2023-03-11T16:17:28.656Z,70.89
2023-03-11T16:20:00.654Z,70.71
2023-03-11T16:22:37.083Z,70.76
2023-03-11T16:25:04.646Z,71.41
2023-03-11T16:27:31.113Z,71.79
2023-03-11T16:29:59.180Z,71.91
2023-03-11T16:32:25.724Z,72.78
2023-03-11T16:34:52.261Z,73.94
2023-03-11T16:37:21.742Z,73.33
2023-03-11T16:39:52.647Z,73.32
2023-03-11T16:42:24.003Z,74.18
2023-03-11T16:44:51.035Z,74.44
2023-03-11T16:47:18.160Z,74.16
2023-03-11T16:49:44.757Z,75.55
2023-03-11T16:52:11.265Z,75.69
2023-03-11T16:54:37.789Z,74.96
2023-03-11T16:57:04.277Z,75.45
2023-03-11T16:59:30.779Z,75.51
2023-03-11T17:01:57.381Z,75.87
2023-03-11T17:04:23.918Z,76.01
2023-03-11T17:06:50.366Z,76.03
2023-03-11T17:09:16.847Z,76.06
2023-03-11T17:11:43.389Z,77.11
2023-03-11T17:14:16.227Z,77.16
2023-03-11T17:16:44.996Z,78.35
2023-03-11T17:19:11.560Z,78.03
2023-03-11T17:21:38.023Z,78.37
2023-03-11T17:24:04.840Z,79.20
2023-03-11T17:26:31.711Z,78.35
2023-03-11T17:28:58.490Z,79.35
2023-03-11T17:31:25.018Z,78.84
2023-03-11T17:33:51.589Z,78.62
2023-03-11T17:36:18.600Z,78.40
2023-03-11T17:38:46.364Z,77.90
2023-03-11T17:41:15.717Z,77.06
2023-03-11T17:43:43.113Z,77.20
2023-03-11T17:46:12.320Z,77.43
2023-03-11T17:48:38.776Z,77.59
2023-03-11T17:51:10.306Z,77.38
2023-03-11T17:53:38.261Z,77.19
2023-03-11T17:56:06.048Z,77.13
2023-03-11T17:58:32.995Z,77.10
2023-03-11T18:00:59.560Z,77.61
2023-03-11T18:03:26.043Z,77.35
2023-03-11T18:05:59.649Z,78.12
2023-03-11T18:08:26.153Z,77.90
2023-03-11T18:10:54.483Z,77.61
2023-03-11T18:13:21.372Z,77.88
2023-03-11T18:15:57.215Z,77.57
2023-03-11T18:18:23.887Z,77.84
2023-03-11T18:20:50.333Z,78.88
2023-03-11T18:23:16.833Z,79.65
2023-03-11T18:25:43.431Z,80.10
2023-03-11T18:28:10.808Z,79.60
2023-03-11T18:30:38.091Z,79.43
2023-03-11T18:33:04.928Z,79.93
2023-03-11T18:35:31.413Z,80.96
2023-03-11T18:37:57.949Z,79.72
2023-03-11T18:40:24.409Z,81.05
2023-03-11T18:42:54.009Z,81.58
2023-03-11T18:45:20.516Z,80.74
2023-03-11T18:47:47.018Z,80.42
2023-03-11T18:50:13.478Z,80.18
2023-03-11T18:52:40.013Z,80.63
2023-03-11T18:55:07.078Z,80.51
2023-03-11T18:57:33.547Z,80.99
2023-03-11T19:00:00.185Z,80.49
2023-03-11T19:02:26.655Z,79.99
2023-03-11T19:04:53.189Z,80.16
2023-03-11T19:07:19.843Z,80.09
2023-03-11T19:09:48.650Z,80.53
2023-03-11T19:12:15.120Z,80.72
2023-03-11T19:14:41.660Z,80.23
2023-03-11T19:17:08.235Z,80.66
2023-03-11T19:19:34.885Z,81.37
2023-03-11T19:22:01.492Z,81.16
2023-03-11T19:24:28.028Z,81.68
2023-03-11T19:26:54.661Z,81.91
2023-03-11T19:29:23.739Z,82.52
2023-03-11T19:31:50.580Z,82.72
2023-03-11T19:34:17.213Z,83.04
2023-03-11T19:36:43.811Z,83.55
2023-03-11T19:39:10.338Z,83.76
2023-03-11T19:41:36.910Z,84.29
2023-03-11T19:44:04.314Z,84.21
2023-03-11T19:46:34.403Z,83.69
2023-03-11T19:49:01.023Z,83.65
2023-03-11T19:51:32.924Z,83.94
2023-03-11T19:54:05.564Z,85.05
2023-03-11T19:56:32.155Z,84.43
2023-03-11T19:58:58.623Z,84.33
2023-03-11T20:01:28.155Z,84.60
2023-03-11T20:03:54.671Z,84.91
2023-03-11T20:06:22.720Z,84.72
2023-03-11T20:08:49.994Z,84.87
2023-03-11T20:11:16.718Z,84.76
2023-03-11T20:13:44.056Z,84.67
2023-03-11T20:16:14.107Z,84.62
2023-03-11T20:18:41.489Z,84.72
2023-03-11T20:21:09.957Z,84.12
2023-03-11T20:23:37.100Z,84.56
2023-03-11T20:26:08.786Z,84.25
2023-03-11T20:28:35.465Z,84.42
2023-03-11T20:31:14.280Z,83.87
2023-03-11T20:33:40.848Z,84.11
2023-03-11T20:36:09.898Z,84.34
2023-03-11T20:38:36.873Z,83.87
2023-03-11T20:41:08.005Z,84.11
2023-03-11T20:43:35.604Z,84.19
2023-03-11T20:46:02.320Z,84.02
2023-03-11T20:48:29.585Z,84.02
2023-03-11T20:51:24.359Z,84.20
2023-03-11T20:53:51.407Z,84.09
2023-03-11T20:56:20.765Z,84.79
2023-03-11T20:58:50.726Z,84.70
2023-03-11T21:01:26.999Z,84.43
2023-03-11T21:03:58.806Z,84.16
2023-03-11T21:06:38.262Z,84.71
2023-03-11T21:09:15.187Z,84.76
2023-03-11T21:11:42.276Z,85.30
2023-03-11T21:14:09.495Z,85.03
2023-03-11T21:16:40.066Z,84.78
2023-03-11T21:19:08.721Z,84.16
2023-03-11T21:21:35.654Z,84.89
2023-03-11T21:24:02.418Z,85.70
2023-03-11T21:26:29.008Z,85.11
2023-03-11T21:28:55.650Z,85.48
2023-03-11T21:31:25.615Z,85.51
2023-03-11T21:33:55.103Z,84.97
2023-03-11T21:36:22.165Z,85.76
2023-03-11T21:38:49.703Z,84.90
2023-03-11T21:41:18.504Z,85.46
2023-03-11T21:43:45.830Z,85.63
2023-03-11T21:46:18.896Z,85.58
2023-03-11T21:48:46.478Z,85.50
2023-03-11T21:51:13.691Z,88.23
2023-03-11T21:53:40.284Z,90.93
2023-03-11T21:56:07.246Z,96.16
2023-03-11T21:58:33.982Z,100.00
2023-03-11T22:01:00.978Z,100.00
2023-03-11T22:03:28.065Z,100.00
2023-03-11T22:06:02.684Z,100.00
2023-03-11T22:08:29.730Z,100.00
2023-03-11T22:10:56.785Z,100.00
2023-03-11T22:13:24.341Z,100.00
2023-03-11T22:15:51.131Z,100.00
2023-03-11T22:18:19.354Z,100.00
2023-03-11T22:20:46.125Z,100.00
2023-03-11T22:23:12.623Z,100.00
2023-03-11T22:25:39.114Z,100.00
2023-03-11T22:28:05.648Z,100.00
2023-03-11T22:30:32.142Z,100.00
2023-03-11T22:32:58.631Z,100.00
2023-03-11T22:35:25.120Z,100.00
2023-03-11T22:37:51.660Z,100.00
2023-03-11T22:40:18.181Z,100.00
2023-03-11T22:42:44.697Z,100.00
2023-03-11T22:45:11.427Z,100.00
2023-03-11T22:47:37.917Z,100.00
2023-03-11T22:50:04.763Z,100.00
2023-03-11T22:52:31.244Z,100.00
2023-03-11T22:54:57.703Z,99.33
2023-03-11T22:57:24.196Z,98.83
2023-03-11T22:59:50.651Z,98.51
2023-03-11T23:02:17.140Z,98.59
2023-03-11T23:04:46.463Z,98.09
2023-03-11T23:07:13.033Z,97.84
2023-03-11T23:09:39.617Z,98.44
2023-03-11T23:12:06.983Z,100.00
2023-03-11T23:14:44.417Z,100.00
2023-03-11T23:17:11.747Z,100.00
2023-03-11T23:19:38.280Z,100.00
2023-03-11T23:22:04.893Z,100.00
2023-03-11T23:24:31.389Z,100.00
2023-03-11T23:26:57.895Z,100.00
2023-03-11T23:29:24.347Z,100.00
2023-03-11T23:31:50.829Z,100.00
2023-03-11T23:34:17.316Z,100.00
2023-03-11T23:36:43.777Z,100.00
2023-03-11T23:39:10.286Z,100.00
2023-03-11T23:41:37.893Z,100.00
2023-03-11T23:44:04.828Z,100.00
2023-03-11T23:46:31.777Z,100.00
2023-03-11T23:48:58.556Z,100.00
2023-03-11T23:51:25.088Z,100.00
2023-03-11T23:53:51.599Z,100.00
2023-03-11T23:56:19.081Z,100.00
2023-03-11T23:58:46.490Z,100.00
